Time;durP1;ratioP1;P1;durP2;ratioP2;P2;SDS_P1;SDS_P2;PMS_P1;PMS_P2;Temp;Humidity;BMP_temperature;BMP_pressure;BME280_temperature;BME280_humidity;BME280_pressure;Samples;Min_cycle;Max_cycle;Signal;HPM_P1;HPM_P2
2021/03/13 00:00:58;;;;;;;6.95;2.40;;;25.80;81.50;;;;;;5071520;28;20033;-68
2021/03/13 00:03:25;;;;;;;4.03;2.42;;;25.90;81.40;;;;;;5069022;28;20028;-62
2021/03/13 00:05:53;;;;;;;3.70;1.90;;;26.00;81.40;;;;;;5071572;28;20507;-62
2021/03/13 00:08:20;;;;;;;2.40;1.83;;;26.10;80.30;;;;;;5071598;28;20080;-59
2021/03/13 00:10:48;;;;;;;3.17;2.13;;;26.10;79.80;;;;;;5072413;28;20506;-63
2021/03/13 00:13:16;;;;;;;3.78;2.30;;;26.10;80.00;;;;;;5072103;28;20114;-64
2021/03/13 00:15:45;;;;;;;3.47;2.03;;;26.20;81.10;;;;;;5070664;28;20028;-67
2021/03/13 00:18:14;;;;;;;2.13;1.63;;;26.30;80.40;;;;;;5071204;28;20052;-65
2021/03/13 00:20:43;;;;;;;1.67;1.55;;;26.30;79.20;;;;;;5071641;28;20173;-64
2021/03/13 00:23:11;;;;;;;2.35;1.80;;;26.30;80.30;;;;;;5072321;28;20230;-60
2021/03/13 00:25:39;;;;;;;4.45;2.35;;;26.40;79.20;;;;;;5071522;28;20438;-62
2021/03/13 00:28:07;;;;;;;2.72;1.80;;;26.40;80.50;;;;;;5069825;28;20107;-67
2021/03/13 00:30:39;;;;;;;3.10;1.98;;;26.60;78.60;;;;;;5071465;28;20371;-59
2021/03/13 00:33:10;;;;;;;2.00;1.80;;;26.60;79.90;;;;;;5071700;28;20032;-58
2021/03/13 00:35:38;;;;;;;2.80;2.20;;;26.60;78.70;;;;;;5071189;28;20025;-67
2021/03/13 00:38:06;;;;;;;2.00;1.65;;;26.80;79.90;;;;;;5069155;28;20094;-61
2021/03/13 00:40:35;;;;;;;3.72;2.42;;;26.90;77.70;;;;;;5070983;28;20028;-56
2021/03/13 00:43:04;;;;;;;1.73;1.40;;;27.00;78.70;;;;;;5072051;28;20037;-59
2021/03/13 00:45:32;;;;;;;2.75;1.77;;;27.10;77.80;;;;;;5071243;28;20017;-56
2021/03/13 00:48:01;;;;;;;1.63;1.40;;;26.80;78.60;;;;;;5071121;28;20029;-54
2021/03/13 00:50:31;;;;;;;3.22;2.65;;;27.00;77.40;;;;;;5070796;28;20038;-57
2021/03/13 00:52:59;;;;;;;2.17;1.83;;;27.10;77.50;;;;;;5070952;28;20181;-61
2021/03/13 00:55:27;;;;;;;4.97;2.03;;;27.10;77.00;;;;;;5071143;28;20063;-61
2021/03/13 00:57:54;;;;;;;2.40;1.83;;;27.30;77.70;;;;;;5070540;28;20025;-52
2021/03/13 01:00:24;;;;;;;3.03;2.17;;;27.40;77.60;;;;;;5070629;28;20086;-58
2021/03/13 01:02:52;;;;;;;2.95;2.25;;;27.40;77.30;;;;;;5071457;28;20036;-53
2021/03/13 01:05:20;;;;;;;3.40;2.10;;;27.50;76.90;;;;;;5070859;28;20441;-52
2021/03/13 01:07:47;;;;;;;4.63;2.15;;;27.50;76.30;;;;;;5071336;28;20024;-56
2021/03/13 01:10:34;;;;;;;2.80;1.73;;;27.50;77.00;;;;;;5070775;28;20098;-57
2021/03/13 01:13:03;;;;;;;2.90;1.83;;;27.50;76.70;;;;;;5071010;28;20046;-64
2021/03/13 01:15:31;;;;;;;2.20;2.00;;;27.50;76.20;;;;;;5071086;28;20501;-58
2021/03/13 01:17:59;;;;;;;1.95;1.67;;;27.40;76.50;;;;;;5070742;28;20500;-58
2021/03/13 01:20:27;;;;;;;6.30;2.08;;;27.40;76.40;;;;;;5070699;28;20032;-56
2021/03/13 01:22:55;;;;;;;8.65;2.13;;;27.60;76.90;;;;;;5070800;28;20051;-64
2021/03/13 01:25:23;;;;;;;1.85;1.45;;;27.70;76.00;;;;;;5070845;28;20048;-55
2021/03/13 01:27:51;;;;;;;2.63;2.08;;;27.60;75.90;;;;;;5069293;28;20101;-53
2021/03/13 01:30:21;;;;;;;2.25;1.63;;;27.60;76.10;;;;;;5070400;28;20052;-59
2021/03/13 01:32:52;;;;;;;2.38;1.80;;;27.50;76.50;;;;;;5070865;28;20025;-63
2021/03/13 01:35:20;;;;;;;;;;;27.50;76.80;;;;;;5062442;28;20036;-53
2021/03/13 01:37:48;;;;;;;1.58;1.48;;;27.70;76.90;;;;;;5067434;28;19908;-64
2021/03/13 01:40:16;;;;;;;2.58;1.80;;;27.80;75.90;;;;;;5071452;28;20384;-64
2021/03/13 01:42:45;;;;;;;5.82;1.80;;;27.90;76.30;;;;;;5064673;28;20028;-53
2021/03/13 01:45:16;;;;;;;5.88;1.70;;;28.00;76.50;;;;;;5048867;28;20430;-55
2021/03/13 01:47:44;;;;;;;2.63;1.73;;;28.20;76.00;;;;;;5068965;28;20387;-55
2021/03/13 01:50:14;;;;;;;2.25;1.65;;;28.30;75.90;;;;;;5070252;28;20253;-59
2021/03/13 01:52:42;;;;;;;2.90;1.83;;;28.20;74.70;;;;;;5070738;28;20159;-61
2021/03/13 01:55:11;;;;;;;4.20;2.45;;;28.10;76.10;;;;;;5068781;28;20039;-59
2021/03/13 01:57:39;;;;;;;5.68;2.30;;;28.40;75.30;;;;;;5071395;28;20021;-61
2021/03/13 02:00:20;;;;;;;7.78;2.45;;;28.50;75.40;;;;;;5072048;28;20025;-63
2021/03/13 02:02:48;;;;;;;2.40;2.20;;;28.50;74.50;;;;;;5067959;28;20020;-61
2021/03/13 02:05:44;;;;;;;5.15;2.22;;;28.50;74.80;;;;;;5068675;28;20074;-58
2021/03/13 02:08:19;;;;;;;6.93;4.20;;;28.50;75.00;;;;;;5071710;28;20021;-56
2021/03/13 02:11:07;;;;;;;3.78;3.05;;;28.60;75.00;;;;;;5071472;28;20036;-57
2021/03/13 02:13:59;;;;;;;3.25;2.90;;;28.60;74.70;;;;;;5066414;28;20645;-57
2021/03/13 02:16:55;;;;;;;6.68;5.88;;;28.60;74.50;;;;;;5070796;28;20052;-50
2021/03/13 02:19:59;;;;;;;5.53;4.82;;;29.00;74.60;;;;;;5057491;28;20553;-49
2021/03/13 02:22:31;;;;;;;10.23;5.15;;;29.20;73.80;;;;;;5067782;28;20131;-51
2021/03/13 02:25:06;;;;;;;;;;;29.20;74.10;;;;;;5066522;28;20059;-54
2021/03/13 02:28:00;;;;;;;7.22;3.88;;;29.20;75.20;;;;;;5069787;28;19905;-55
2021/03/13 02:30:29;;;;;;;5.63;4.32;;;29.10;74.90;;;;;;5072700;28;20025;-59
2021/03/13 02:33:08;;;;;;;5.57;3.95;;;29.10;75.50;;;;;;5073148;28;20413;-50
2021/03/13 02:35:43;;;;;;;5.20;2.40;;;29.00;75.90;;;;;;5073430;28;20035;-52
2021/03/13 02:38:29;;;;;;;10.77;3.33;;;28.90;76.10;;;;;;5073444;28;20029;-51
2021/03/13 02:41:02;;;;;;;9.48;2.80;;;28.90;77.10;;;;;;5072968;28;20032;-57
2021/03/13 02:43:32;;;;;;;7.57;3.30;;;28.80;76.70;;;;;;5073500;28;20024;-48
2021/03/13 02:46:01;;;;;;;8.88;4.22;;;28.70;75.10;;;;;;5072837;28;20038;-51
2021/03/13 02:48:31;;;;;;;7.00;2.97;;;28.70;76.30;;;;;;5072970;28;20024;-53
2021/03/13 02:51:01;;;;;;;8.57;3.75;;;28.80;76.10;;;;;;5071588;28;20062;-53
2021/03/13 02:53:29;;;;;;;11.23;4.20;;;28.80;76.30;;;;;;5072814;28;20032;-59
2021/03/13 02:55:58;;;;;;;6.35;3.13;;;28.70;77.10;;;;;;5072850;28;20379;-47
2021/03/13 02:58:26;;;;;;;6.93;3.15;;;28.80;75.60;;;;;;5072847;28;20086;-52
2021/03/13 03:00:54;;;;;;;4.80;2.97;;;28.90;75.00;;;;;;5072037;28;20397;-52
2021/03/13 03:03:24;;;;;;;6.57;2.75;;;29.00;75.30;;;;;;5073151;28;20025;-54
2021/03/13 03:05:57;;;;;;;3.78;2.55;;;29.10;74.80;;;;;;5072327;28;20060;-52
2021/03/13 03:08:26;;;;;;;6.65;2.78;;;29.10;74.90;;;;;;5072687;28;20336;-59
2021/03/13 03:10:54;;;;;;;5.55;2.80;;;29.30;74.20;;;;;;5072285;28;20028;-56
2021/03/13 03:13:26;;;;;;;11.20;2.80;;;29.20;75.20;;;;;;5072562;28;20442;-48
2021/03/13 03:15:54;;;;;;;4.85;2.55;;;29.30;75.00;;;;;;5072407;28;20435;-51
2021/03/13 03:18:25;;;;;;;9.73;2.75;;;29.20;74.90;;;;;;5072213;28;20032;-56
2021/03/13 03:20:57;;;;;;;6.78;2.65;;;29.20;75.20;;;;;;5072718;28;20507;-53
2021/03/13 03:23:24;;;;;;;5.18;2.58;;;29.20;75.60;;;;;;5072797;28;20083;-55
2021/03/13 03:25:53;;;;;;;7.32;2.65;;;29.20;76.10;;;;;;5072559;28;20382;-57
2021/03/13 03:28:21;;;;;;;7.90;3.13;;;29.10;76.50;;;;;;5072013;28;20033;-54
2021/03/13 03:30:49;;;;;;;11.77;4.30;;;29.10;76.00;;;;;;5072262;28;20037;-53
2021/03/13 03:33:17;;;;;;;9.07;2.70;;;29.10;76.80;;;;;;5072124;28;20035;-49
2021/03/13 03:35:45;;;;;;;10.75;2.65;;;29.10;75.50;;;;;;5072160;28;20116;-58
2021/03/13 03:38:12;;;;;;;7.32;2.60;;;29.00;75.70;;;;;;5071880;28;20028;-57
2021/03/13 03:40:42;;;;;;;10.60;3.08;;;29.10;74.70;;;;;;5072142;28;20020;-65
2021/03/13 03:43:24;;;;;;;6.40;2.15;;;29.00;75.00;;;;;;5071901;28;20545;-58
2021/03/13 03:46:00;;;;;;;6.85;2.75;;;28.90;75.50;;;;;;5072550;28;20012;-55
2021/03/13 03:48:28;;;;;;;8.52;2.90;;;28.90;76.00;;;;;;5070595;28;20029;-51
2021/03/13 03:50:57;;;;;;;5.90;2.30;;;29.00;75.90;;;;;;5072423;28;20098;-53
2021/03/13 03:53:37;;;;;;;5.80;2.65;;;28.90;76.40;;;;;;5072145;28;20029;-50
2021/03/13 03:56:05;;;;;;;10.48;2.95;;;29.00;76.60;;;;;;5071929;28;20103;-51
2021/03/13 03:58:39;;;;;;;8.27;3.15;;;29.00;76.90;;;;;;5071828;28;20043;-49
2021/03/13 04:01:09;;;;;;;8.77;3.03;;;29.10;76.80;;;;;;5052395;28;20467;-47
2021/03/13 04:03:47;;;;;;;8.27;2.92;;;29.00;76.80;;;;;;5052154;28;20029;-47
2021/03/13 04:06:15;;;;;;;10.00;3.47;;;29.00;77.50;;;;;;5051917;28;20053;-47
2021/03/13 04:08:45;;;;;;;5.97;2.95;;;28.90;77.70;;;;;;5067603;28;20091;-50
2021/03/13 04:11:21;;;;;;;7.55;3.35;;;28.90;78.00;;;;;;5051667;28;20029;-54
2021/03/13 04:13:54;;;;;;;6.88;2.72;;;28.90;77.60;;;;;;5051306;28;20033;-55
2021/03/13 04:16:22;;;;;;;6.63;2.90;;;28.80;78.20;;;;;;5052087;28;20029;-51
2021/03/13 04:18:50;;;;;;;8.95;2.67;;;28.80;78.90;;;;;;5051760;28;20402;-48
2021/03/13 04:21:18;;;;;;;7.20;3.13;;;28.70;78.10;;;;;;5052271;28;20118;-51
2021/03/13 04:23:50;;;;;;;4.75;2.90;;;28.90;78.00;;;;;;5050527;28;20371;-54
2021/03/13 04:26:20;;;;;;;8.88;3.38;;;29.00;77.90;;;;;;5051962;28;20108;-51
2021/03/13 04:28:49;;;;;;;5.18;2.58;;;28.90;78.30;;;;;;5052228;28;20031;-54
2021/03/13 04:31:20;;;;;;;8.93;2.47;;;28.80;79.20;;;;;;5067385;28;20399;-56
2021/03/13 04:33:50;;;;;;;7.32;2.47;;;28.80;76.70;;;;;;5050489;28;20411;-62
2021/03/13 04:36:18;;;;;;;8.55;2.60;;;28.70;77.20;;;;;;5052059;28;20017;-54
2021/03/13 04:38:47;;;;;;;8.68;3.47;;;28.70;78.20;;;;;;5052045;28;20388;-53
2021/03/13 04:41:15;;;;;;;11.18;2.58;;;28.60;78.30;;;;;;5051748;28;20053;-55
2021/03/13 04:43:43;;;;;;;6.70;3.40;;;28.50;77.80;;;;;;5051675;28;20094;-53
2021/03/13 04:46:11;;;;;;;6.22;2.70;;;28.60;78.90;;;;;;5051715;28;20476;-57
2021/03/13 04:48:39;;;;;;;10.40;3.40;;;28.60;80.90;;;;;;5051860;28;20424;-53
2021/03/13 04:51:07;;;;;;;8.27;2.80;;;28.40;80.60;;;;;;5051776;28;20464;-60
2021/03/13 04:53:35;;;;;;;5.68;2.13;;;28.40;78.70;;;;;;5051566;28;20044;-49
2021/03/13 04:56:03;;;;;;;10.45;2.50;;;28.50;78.80;;;;;;5048188;28;20022;-52
2021/03/13 04:58:31;;;;;;;11.98;3.03;;;28.60;77.60;;;;;;5051235;28;20095;-49
2021/03/13 05:00:58;;;;;;;8.05;3.05;;;28.60;77.00;;;;;;5051623;28;20017;-51
2021/03/13 05:03:26;;;;;;;9.65;2.85;;;28.60;78.10;;;;;;5051258;28;20059;-53
2021/03/13 05:05:53;;;;;;;16.30;2.90;;;28.60;77.80;;;;;;5063424;28;20059;-56
2021/03/13 05:08:21;;;;;;;11.20;3.17;;;28.60;80.20;;;;;;5069774;28;20429;-54
2021/03/13 05:10:49;;;;;;;7.72;2.78;;;28.60;79.80;;;;;;5069444;28;20103;-58
2021/03/13 05:13:16;;;;;;;11.32;2.28;;;28.50;79.90;;;;;;5071332;28;20040;-54
2021/03/13 05:15:44;;;;;;;5.97;2.92;;;28.60;79.50;;;;;;5071697;28;20478;-51
2021/03/13 05:18:11;;;;;;;7.68;1.98;;;28.50;80.00;;;;;;5071270;28;20450;-55
2021/03/13 05:20:39;;;;;;;8.57;1.95;;;28.50;78.50;;;;;;5071532;28;20027;-49
2021/03/13 05:23:06;;;;;;;7.55;2.40;;;28.50;78.80;;;;;;5069835;28;20024;-53
2021/03/13 05:25:34;;;;;;;9.15;2.17;;;28.50;77.90;;;;;;5074737;28;20020;-52
2021/03/13 05:28:01;;;;;;;9.10;2.20;;;28.40;77.50;;;;;;5071976;28;20506;-51
2021/03/13 05:30:29;;;;;;;7.93;2.60;;;28.40;77.90;;;;;;5074822;28;20103;-52
2021/03/13 05:32:56;;;;;;;8.23;2.67;;;28.40;78.30;;;;;;5075082;28;20448;-52
2021/03/13 05:35:24;;;;;;;7.47;2.20;;;28.40;78.40;;;;;;5074809;28;20383;-53
2021/03/13 05:37:52;;;;;;;10.90;2.35;;;28.40;79.20;;;;;;5074815;28;20063;-55
2021/03/13 05:40:19;;;;;;;9.18;2.13;;;28.40;79.40;;;;;;5074871;28;20028;-55
2021/03/13 05:42:47;;;;;;;7.03;2.33;;;28.40;78.20;;;;;;5075077;28;20462;-52
2021/03/13 05:45:15;;;;;;;7.45;2.33;;;28.40;77.90;;;;;;5074654;28;20119;-52
2021/03/13 05:47:43;;;;;;;9.93;2.40;;;28.40;78.00;;;;;;5074722;28;20081;-52
2021/03/13 05:50:16;;;;;;;6.13;2.65;;;28.50;78.60;;;;;;5074393;28;20115;-57
2021/03/13 05:52:53;;;;;;;7.30;2.10;;;28.50;77.60;;;;;;5074762;28;20037;-62
2021/03/13 05:55:21;;;;;;;6.05;2.35;;;28.40;77.80;;;;;;5068724;28;20508;-52
2021/03/13 05:57:51;;;;;;;8.55;2.65;;;28.40;77.40;;;;;;5073163;28;20154;-49
2021/03/13 06:00:20;;;;;;;15.70;2.97;;;28.40;77.20;;;;;;5069614;28;20032;-49
2021/03/13 06:02:48;;;;;;;15.73;2.67;;;28.40;78.10;;;;;;5057068;28;20035;-53
2021/03/13 06:05:16;;;;;;;19.25;2.70;;;28.40;79.00;;;;;;5074178;28;20052;-54
2021/03/13 06:07:44;;;;;;;13.48;2.75;;;28.40;79.80;;;;;;5074264;28;20365;-54
2021/03/13 06:10:15;;;;;;;6.65;2.78;;;28.40;78.50;;;;;;5073950;28;20032;-53
2021/03/13 06:12:43;;;;;;;8.65;2.40;;;28.50;77.70;;;;;;5074032;28;20041;-55
2021/03/13 06:15:11;;;;;;;9.93;2.97;;;28.50;77.20;;;;;;5073833;28;20028;-47
2021/03/13 06:17:57;;;;;;;12.48;2.40;;;28.40;77.70;;;;;;5074091;28;20021;-47
2021/03/13 06:20:33;;;;;;;6.70;2.05;;;28.40;77.20;;;;;;5074086;28;20048;-50
2021/03/13 06:23:22;;;;;;;5.72;2.17;;;28.40;77.60;;;;;;5074035;28;20025;-48
2021/03/13 06:25:49;;;;;;;14.48;2.65;;;28.40;77.80;;;;;;5073592;28;20437;-50
2021/03/13 06:28:22;;;;;;;5.85;2.38;;;28.50;79.40;;;;;;5074123;28;20114;-49
2021/03/13 06:31:03;;;;;;;10.32;2.50;;;28.40;78.90;;;;;;5074468;28;20025;-55
2021/03/13 06:33:34;;;;;;;9.38;2.83;;;28.40;79.30;;;;;;5074221;28;20151;-50
2021/03/13 06:36:06;;;;;;;;;;;28.40;77.30;;;;;;5073269;28;20103;-51
2021/03/13 06:38:35;;;;;;;13.15;2.78;;;28.30;76.80;;;;;;5073830;28;19909;-47
2021/03/13 06:41:22;;;;;;;5.57;2.42;;;28.30;76.30;;;;;;5073828;28;20024;-52
2021/03/13 06:43:52;;;;;;;6.72;2.00;;;28.40;77.50;;;;;;5073970;28;20031;-48
2021/03/13 06:46:29;;;;;;;8.23;2.70;;;28.40;77.00;;;;;;5073265;28;20021;-47
2021/03/13 06:48:58;;;;;;;8.68;3.13;;;28.50;77.80;;;;;;5073390;28;20411;-52
2021/03/13 06:51:45;;;;;;;9.95;2.35;;;28.50;79.20;;;;;;5073345;28;20025;-54
2021/03/13 06:54:17;;;;;;;10.82;2.53;;;28.50;80.20;;;;;;5073205;28;20512;-49
2021/03/13 06:56:56;;;;;;;10.88;2.30;;;28.50;79.40;;;;;;5073431;28;20424;-53
2021/03/13 06:59:35;;;;;;;7.78;3.00;;;28.40;77.50;;;;;;5073134;28;20383;-50
2021/03/13 07:02:05;;;;;;;8.13;2.15;;;28.40;77.50;;;;;;5073292;28;20459;-52
2021/03/13 07:04:42;;;;;;;12.63;2.17;;;28.40;77.70;;;;;;5072837;28;20040;-51
2021/03/13 07:07:14;;;;;;;15.75;2.60;;;28.40;76.00;;;;;;5073518;28;20020;-49
2021/03/13 07:09:52;;;;;;;15.55;2.88;;;28.30;74.70;;;;;;5073179;28;20038;-56
2021/03/13 07:12:26;;;;;;;18.85;4.53;;;28.30;74.90;;;;;;5072513;28;20526;-53
2021/03/13 07:14:55;;;;;;;29.75;5.25;;;28.10;76.30;;;;;;5072060;28;20047;-63
2021/03/13 07:17:26;;;;;;;25.25;5.05;;;28.10;78.20;;;;;;5069686;28;20021;-56
2021/03/13 07:19:53;;;;;;;22.30;4.43;;;28.00;77.80;;;;;;5071647;28;20028;-57
2021/03/13 07:22:21;;;;;;;20.13;4.43;;;28.00;77.90;;;;;;5071393;28;20048;-56
2021/03/13 07:24:53;;;;;;;23.05;5.25;;;27.90;78.30;;;;;;5071288;28;20035;-56
2021/03/13 07:27:22;;;;;;;15.57;4.38;;;27.90;78.40;;;;;;5071179;28;20028;-53
2021/03/13 07:29:51;;;;;;;14.27;4.20;;;27.80;78.70;;;;;;5071813;28;20035;-58
2021/03/13 07:32:24;;;;;;;22.95;4.40;;;27.80;78.60;;;;;;5073264;28;20042;-67
2021/03/13 07:34:57;;;;;;;15.18;3.70;;;27.70;79.40;;;;;;5071515;28;20077;-66
2021/03/13 07:37:26;;;;;;;10.55;3.75;;;27.70;78.70;;;;;;5072369;28;20052;-60
2021/03/13 07:39:58;;;;;;;10.02;3.05;;;27.70;79.00;;;;;;5072604;28;20024;-58
2021/03/13 07:42:26;;;;;;;16.77;3.22;;;27.60;78.30;;;;;;5073014;28;20027;-61
2021/03/13 07:44:54;;;;;;;20.95;3.78;;;27.60;78.90;;;;;;5073195;28;20037;-60
2021/03/13 07:47:22;;;;;;;12.25;3.28;;;27.60;78.70;;;;;;5072709;28;20039;-53
2021/03/13 07:49:51;;;;;;;11.73;2.95;;;27.50;79.40;;;;;;5073010;28;20037;-59
2021/03/13 07:52:20;;;;;;;16.92;3.33;;;27.50;79.40;;;;;;5072695;28;20035;-53
2021/03/13 07:54:49;;;;;;;16.42;3.88;;;27.40;79.90;;;;;;5072531;28;20104;-56
2021/03/13 07:57:19;;;;;;;17.48;3.40;;;27.40;79.70;;;;;;5072826;28;20093;-54
2021/03/13 07:59:53;;;;;;;18.65;3.03;;;27.40;79.90;;;;;;5072414;28;20081;-67
2021/03/13 08:02:30;;;;;;;16.15;3.45;;;27.40;79.80;;;;;;5072685;28;20471;-53
2021/03/13 08:05:09;;;;;;;8.02;2.90;;;27.30;79.60;;;;;;5072715;28;20044;-61
2021/03/13 08:07:52;;;;;;;11.98;2.65;;;27.30;79.70;;;;;;5072461;28;20111;-64
2021/03/13 08:10:40;;;;;;;9.18;2.35;;;27.20;79.30;;;;;;5072328;28;20052;-67
2021/03/13 08:13:14;;;;;;;9.63;2.85;;;27.20;80.20;;;;;;5072266;28;20419;-66
2021/03/13 08:15:41;;;;;;;11.50;3.30;;;27.10;79.90;;;;;;5072755;28;20029;-59
2021/03/13 08:18:12;;;;;;;10.27;3.25;;;27.10;79.70;;;;;;5072046;28;20023;-67
2021/03/13 08:20:41;;;;;;;9.55;2.58;;;27.10;79.80;;;;;;5072141;28;20036;-65
2021/03/13 08:23:18;;;;;;;13.13;3.00;;;27.00;79.70;;;;;;5072309;28;20029;-60
2021/03/13 08:25:56;;;;;;;12.93;3.15;;;27.00;80.60;;;;;;5063654;28;20410;-72
2021/03/13 08:28:48;;;;;;;13.38;3.13;;;27.00;80.60;;;;;;5064065;28;20062;-54
2021/03/13 08:31:34;;;;;;;;;;;27.00;80.60;;;;;;5068332;28;20059;-63
2021/03/13 08:34:05;;;;;;;25.65;7.75;;;27.00;81.10;;;;;;5069937;28;20271;-56
2021/03/13 08:36:46;;;;;;;26.25;8.60;;;27.00;80.40;;;;;;5068634;28;20025;-60
2021/03/13 08:39:25;;;;;;;29.85;8.07;;;27.00;81.30;;;;;;5067526;28;20020;-56
2021/03/13 08:41:56;;;;;;;22.98;6.63;;;26.90;81.40;;;;;;5065123;28;20036;-62
2021/03/13 08:44:30;;;;;;;21.83;6.78;;;26.90;81.10;;;;;;5068186;28;20067;-55
2021/03/13 08:47:03;;;;;;;19.30;5.28;;;26.90;82.00;;;;;;5069359;28;20107;-58
2021/03/13 08:49:30;;;;;;;16.50;5.13;;;26.90;82.30;;;;;;5066941;28;20201;-62
2021/03/13 08:52:09;;;;;;;22.10;5.50;;;26.90;82.20;;;;;;5062976;28;20028;-61
2021/03/13 08:54:40;;;;;;;22.90;6.10;;;26.90;81.90;;;;;;5066605;28;20486;-60
2021/03/13 08:57:10;;;;;;;22.02;6.00;;;26.90;82.10;;;;;;5065821;28;20035;-58
2021/03/13 08:59:41;;;;;;;15.98;5.25;;;26.90;81.80;;;;;;5067856;28;20104;-58
2021/03/13 09:02:17;;;;;;;18.38;6.13;;;26.90;82.50;;;;;;5066621;28;20450;-56
2021/03/13 09:04:54;;;;;;;16.80;6.13;;;26.90;82.00;;;;;;5073020;28;20040;-54
2021/03/13 09:07:24;;;;;;;19.02;5.47;;;26.80;82.10;;;;;;5070386;28;20066;-55
2021/03/13 09:09:52;;;;;;;13.60;4.85;;;26.80;82.10;;;;;;5068692;28;20028;-69
2021/03/13 09:12:21;;;;;;;16.52;5.22;;;26.80;82.20;;;;;;5066811;28;20028;-60
2021/03/13 09:15:09;;;;;;;18.95;5.88;;;26.80;82.00;;;;;;5070439;28;20028;-51
2021/03/13 09:17:37;;;;;;;15.18;5.15;;;26.80;81.60;;;;;;5070750;28;20024;-57
2021/03/13 09:20:16;;;;;;;16.25;5.40;;;26.80;81.50;;;;;;5075275;28;20036;-59
2021/03/13 09:22:46;;;;;;;20.10;5.70;;;26.70;82.00;;;;;;5069892;28;20056;-60
2021/03/13 09:25:16;;;;;;;16.23;5.28;;;26.70;81.80;;;;;;5068992;28;20021;-55
2021/03/13 09:27:44;;;;;;;13.98;4.43;;;26.70;81.70;;;;;;5072579;28;20122;-51
2021/03/13 09:30:22;;;;;;;10.70;4.80;;;26.70;81.70;;;;;;5072154;28;20021;-55
2021/03/13 09:32:51;;;;;;;12.85;4.30;;;26.70;81.90;;;;;;5071704;28;20131;-56
2021/03/13 09:35:23;;;;;;;13.63;5.38;;;26.70;81.60;;;;;;5070322;28;20112;-58
2021/03/13 09:37:53;;;;;;;14.90;4.40;;;26.70;80.90;;;;;;5072105;28;20029;-57
2021/03/13 09:40:24;;;;;;;21.45;4.88;;;26.70;82.40;;;;;;5067576;28;20075;-55
2021/03/13 09:42:52;;;;;;;14.13;4.63;;;26.70;81.70;;;;;;5071511;28;20024;-54
2021/03/13 09:45:26;;;;;;;8.63;3.85;;;26.70;81.80;;;;;;5071963;28;20775;-55
2021/03/13 09:47:58;;;;;;;14.70;4.68;;;26.70;81.60;;;;;;5068572;28;20112;-56
2021/03/13 09:50:31;;;;;;;16.85;4.50;;;26.70;81.40;;;;;;5067938;28;20483;-55
2021/03/13 09:53:02;;;;;;;10.65;3.78;;;26.70;81.10;;;;;;5068960;28;20051;-55
2021/03/13 09:55:30;;;;;;;10.83;4.93;;;26.60;81.70;;;;;;5068762;28;20020;-51
2021/03/13 09:58:01;;;;;;;9.45;3.65;;;26.60;81.90;;;;;;5071908;28;20287;-57
2021/03/13 10:00:40;;;;;;;13.15;4.07;;;26.60;81.20;;;;;;5066244;28;20477;-56
2021/03/13 10:03:17;;;;;;;20.27;4.45;;;26.60;82.20;;;;;;5072432;28;20032;-52
2021/03/13 10:05:52;;;;;;;17.20;4.97;;;26.60;81.60;;;;;;5071197;28;20089;-55
2021/03/13 10:08:20;;;;;;;10.13;3.97;;;26.60;82.10;;;;;;5071939;28;20440;-51
2021/03/13 10:10:49;;;;;;;9.77;4.38;;;26.60;81.40;;;;;;5068516;28;20029;-52
2021/03/13 10:13:18;;;;;;;12.25;4.22;;;26.60;82.10;;;;;;5071344;28;20082;-55
2021/03/13 10:15:46;;;;;;;13.20;4.22;;;26.50;83.10;;;;;;5070885;28;20104;-53
2021/03/13 10:18:15;;;;;;;7.28;3.03;;;26.50;82.40;;;;;;5071591;28;20471;-57
2021/03/13 10:20:45;;;;;;;13.73;3.67;;;26.50;82.10;;;;;;5068839;28;20070;-58
2021/03/13 10:23:17;;;;;;;10.32;4.15;;;26.50;82.50;;;;;;5072821;28;20100;-56
2021/03/13 10:25:53;;;;;;;11.57;4.05;;;26.50;82.70;;;;;;5071971;28;20028;-57
2021/03/13 10:28:32;;;;;;;11.80;3.72;;;26.50;82.10;;;;;;5069998;28;20059;-54
2021/03/13 10:31:10;;;;;;;7.82;3.28;;;26.50;82.50;;;;;;5073786;28;20060;-52
2021/03/13 10:33:43;;;;;;;10.38;3.55;;;26.50;82.10;;;;;;5070363;28;20044;-50
2021/03/13 10:36:12;;;;;;;10.63;3.63;;;26.50;82.00;;;;;;5073979;28;20052;-55
2021/03/13 10:38:50;;;;;;;12.70;2.60;;;26.50;82.10;;;;;;5073688;28;20021;-54
2021/03/13 10:41:23;;;;;;;9.55;3.10;;;26.40;82.20;;;;;;5074020;28;20024;-53
2021/03/13 10:43:52;;;;;;;11.80;3.00;;;26.40;81.80;;;;;;5073715;28;20028;-50
2021/03/13 10:46:20;;;;;;;10.55;3.70;;;26.40;81.20;;;;;;5073368;28;20031;-57
2021/03/13 10:48:51;;;;;;;12.43;3.78;;;26.40;82.60;;;;;;5073762;28;20135;-61
2021/03/13 10:51:23;;;;;;;8.07;2.90;;;26.40;81.90;;;;;;5073689;28;20020;-60
2021/03/13 10:53:51;;;;;;;7.20;2.90;;;26.40;82.20;;;;;;5073711;28;20081;-56
2021/03/13 10:56:18;;;;;;;6.35;2.85;;;26.40;81.90;;;;;;5073552;28;20105;-58
2021/03/13 10:58:50;;;;;;;7.68;2.85;;;26.30;81.70;;;;;;5073329;28;20041;-52
2021/03/13 11:01:19;;;;;;;7.22;3.03;;;26.30;82.00;;;;;;5093109;28;20024;-58
2021/03/13 11:03:49;;;;;;;14.25;3.95;;;26.40;82.20;;;;;;5091822;28;20173;-51
2021/03/13 11:06:33;;;;;;;5.30;2.47;;;26.30;82.00;;;;;;5092914;28;20390;-53
2021/03/13 11:09:03;;;;;;;11.73;2.97;;;26.40;82.10;;;;;;5093240;28;20036;-55
2021/03/13 11:11:31;;;;;;;6.97;2.75;;;26.40;81.50;;;;;;5093671;28;20051;-54
2021/03/13 11:13:59;;;;;;;10.15;3.03;;;26.40;82.10;;;;;;5093311;28;20486;-55
2021/03/13 11:16:26;;;;;;;8.85;2.53;;;26.40;82.30;;;;;;5093793;28;20027;-52
2021/03/13 11:18:56;;;;;;;7.10;2.42;;;26.30;81.90;;;;;;5092115;28;20173;-53
2021/03/13 11:21:27;;;;;;;7.60;2.80;;;26.30;82.20;;;;;;5093096;28;20028;-55
2021/03/13 11:23:54;;;;;;;;;;;26.30;82.50;;;;;;5093654;28;20082;-53
2021/03/13 11:26:25;;;;;;;8.38;2.70;;;26.30;82.60;;;;;;5093233;28;20057;-59
2021/03/13 11:28:53;;;;;;;5.95;2.38;;;26.30;82.70;;;;;;5086618;28;20020;-53
2021/03/13 11:31:21;;;;;;;7.95;2.80;;;26.30;82.70;;;;;;5062482;28;20034;-60
2021/03/13 11:33:50;;;;;;;7.70;3.22;;;26.20;83.20;;;;;;5070267;28;20037;-53
2021/03/13 11:36:18;;;;;;;6.43;2.35;;;26.30;83.30;;;;;;5070158;28;20131;-55
2021/03/13 11:38:46;;;;;;;5.50;2.70;;;26.30;83.20;;;;;;5071395;28;20111;-71
2021/03/13 11:41:13;;;;;;;8.18;2.92;;;26.30;83.20;;;;;;5065233;28;20540;-54
2021/03/13 11:43:42;;;;;;;5.78;2.03;;;26.30;83.30;;;;;;5070112;28;20556;-55
2021/03/13 11:46:11;;;;;;;5.25;2.00;;;26.30;83.20;;;;;;5070470;28;20422;-59
2021/03/13 11:48:41;;;;;;;6.18;2.47;;;26.30;83.20;;;;;;5070204;28;20040;-55
2021/03/13 11:51:09;;;;;;;6.32;2.60;;;26.30;83.20;;;;;;5063767;28;20016;-63
2021/03/13 11:53:37;;;;;;;8.70;2.15;;;26.30;83.40;;;;;;5070411;28;20475;-55
2021/03/13 11:56:05;;;;;;;6.65;2.45;;;26.30;83.30;;;;;;5069855;28;20089;-54
2021/03/13 11:58:33;;;;;;;9.85;3.05;;;26.30;83.40;;;;;;5069744;28;20126;-53
2021/03/13 12:01:01;;;;;;;8.48;2.83;;;26.30;83.60;;;;;;5064103;28;20037;-64
2021/03/13 12:03:28;;;;;;;7.97;2.22;;;26.30;83.40;;;;;;5069768;28;20383;-68
2021/03/13 12:05:56;;;;;;;7.35;3.15;;;26.30;83.40;;;;;;5069806;28;20055;-61
2021/03/13 12:08:23;;;;;;;9.70;2.90;;;26.30;83.30;;;;;;5069474;28;20074;-58
2021/03/13 12:10:51;;;;;;;5.60;2.08;;;26.30;83.30;;;;;;5063200;28;20033;-53
2021/03/13 12:13:18;;;;;;;4.35;2.25;;;26.30;83.40;;;;;;5068786;28;20028;-56
2021/03/13 12:15:46;;;;;;;7.00;2.25;;;26.30;83.40;;;;;;5069602;28;20448;-57
2021/03/13 12:18:13;;;;;;;6.60;2.15;;;26.30;83.30;;;;;;5069920;28;20502;-54
2021/03/13 12:20:41;;;;;;;6.78;2.85;;;26.30;83.30;;;;;;5062790;28;20024;-60
2021/03/13 12:23:08;;;;;;;3.72;1.80;;;26.30;83.30;;;;;;5067948;28;20377;-51
2021/03/13 12:25:36;;;;;;;6.70;2.47;;;26.30;83.30;;;;;;5072753;28;20020;-54
2021/03/13 12:28:03;;;;;;;6.10;2.42;;;26.30;83.30;;;;;;5069917;28;20509;-55
2021/03/13 12:30:31;;;;;;;6.35;2.60;;;26.30;83.30;;;;;;5063937;28;20668;-54
2021/03/13 12:32:59;;;;;;;5.45;2.03;;;26.30;83.40;;;;;;5067800;28;20032;-53
2021/03/13 12:35:26;;;;;;;6.47;2.10;;;26.30;83.40;;;;;;5069501;28;20043;-51
2021/03/13 12:37:54;;;;;;;7.60;2.25;;;26.30;83.60;;;;;;5068285;28;20383;-56
2021/03/13 12:40:21;;;;;;;6.50;2.33;;;26.30;83.60;;;;;;5066344;28;20024;-53
2021/03/13 12:42:49;;;;;;;9.30;2.03;;;26.30;83.60;;;;;;5066591;28;20074;-55
2021/03/13 12:45:17;;;;;;;6.47;1.88;;;26.30;83.60;;;;;;5069810;28;20020;-55
2021/03/13 12:47:46;;;;;;;3.88;1.95;;;26.30;83.50;;;;;;5069690;28;20032;-54
2021/03/13 12:50:14;;;;;;;5.03;1.90;;;26.30;83.50;;;;;;5067006;28;20025;-54
2021/03/13 12:52:41;;;;;;;4.45;2.13;;;26.30;83.60;;;;;;5065569;28;20115;-52
2021/03/13 12:55:09;;;;;;;5.68;2.33;;;26.30;83.40;;;;;;5069484;28;20025;-57
2021/03/13 12:57:37;;;;;;;4.68;2.17;;;26.30;83.40;;;;;;5069177;28;20017;-50
2021/03/13 13:00:05;;;;;;;7.45;1.80;;;26.30;83.50;;;;;;5069066;28;20119;-55
2021/03/13 13:02:33;;;;;;;5.07;1.83;;;26.30;83.40;;;;;;5063907;28;20098;-50
2021/03/13 13:05:00;;;;;;;5.38;1.80;;;26.30;83.40;;;;;;5068832;28;20044;-56